createdAt,value
2022-08-31T00:01:20.890Z,5.30
2022-08-31T00:04:03.747Z,4.32
2022-08-31T00:06:31.921Z,4.43
2022-08-31T00:08:58.935Z,5.13
2022-08-31T00:11:30.463Z,5.80
2022-08-31T00:13:58.773Z,4.13
2022-08-31T00:16:26.840Z,4.82
2022-08-31T00:18:53.873Z,5.85
2022-08-31T00:21:22.179Z,5.38
2022-08-31T00:23:49.076Z,4.80
2022-08-31T00:26:16.424Z,3.60
2022-08-31T00:28:43.473Z,4.22
2022-08-31T00:31:12.968Z,4.57
2022-08-31T00:33:39.991Z,3.83
2022-08-31T00:36:08.811Z,4.68
2022-08-31T00:38:35.779Z,4.28
2022-08-31T00:41:02.536Z,5.10
2022-08-31T00:43:44.447Z,5.57
2022-08-31T00:46:12.528Z,7.07
2022-08-31T00:48:42.981Z,5.20
2022-08-31T00:51:09.741Z,3.15
2022-08-31T00:53:38.208Z,3.85
2022-08-31T00:56:04.994Z,3.20
2022-08-31T00:58:31.740Z,3.67
2022-08-31T01:00:59.435Z,3.40
2022-08-31T01:03:26.259Z,3.00
2022-08-31T01:05:53.028Z,3.60
2022-08-31T01:08:19.838Z,4.95
2022-08-31T01:10:48.351Z,5.05
2022-08-31T01:13:15.136Z,3.92
2022-08-31T01:15:48.836Z,3.40
2022-08-31T01:18:20.691Z,3.50
2022-08-31T01:20:54.825Z,3.60
2022-08-31T01:23:23.902Z,3.88
2022-08-31T01:25:50.663Z,3.55
2022-08-31T01:28:17.478Z,4.38
2022-08-31T01:30:44.630Z,3.47
2022-08-31T01:33:13.283Z,4.22
2022-08-31T01:35:41.649Z,4.15
2022-08-31T01:38:10.689Z,4.18
2022-08-31T01:40:44.503Z,3.28
2022-08-31T01:43:11.374Z,4.82
2022-08-31T01:45:38.226Z,3.33
2022-08-31T01:48:05.086Z,5.68
2022-08-31T01:50:31.849Z,3.65
2022-08-31T01:52:58.624Z,5.57
2022-08-31T01:55:25.418Z,3.50
2022-08-31T01:57:52.245Z,3.55
2022-08-31T02:00:19.086Z,3.60
2022-08-31T02:02:45.901Z,4.63
2022-08-31T02:05:14.464Z,4.32
2022-08-31T02:07:41.987Z,3.33
2022-08-31T02:10:09.062Z,5.07
2022-08-31T02:12:35.856Z,3.17
2022-08-31T02:15:02.644Z,3.60
2022-08-31T02:17:29.429Z,3.25
2022-08-31T02:19:56.265Z,4.28
2022-08-31T02:22:23.055Z,5.10
2022-08-31T02:24:49.856Z,4.38
2022-08-31T02:27:16.661Z,3.35
2022-08-31T02:29:43.428Z,4.00
2022-08-31T02:32:20.058Z,6.22
2022-08-31T02:34:48.445Z,4.10
2022-08-31T02:37:15.338Z,4.22
2022-08-31T02:39:44.334Z,3.60
2022-08-31T02:42:11.262Z,2.88
2022-08-31T02:44:38.031Z,2.85
2022-08-31T02:47:04.881Z,4.65
2022-08-31T02:49:34.702Z,3.08
2022-08-31T02:52:01.492Z,4.40
2022-08-31T02:54:28.441Z,4.40
2022-08-31T02:56:55.235Z,3.45
2022-08-31T02:59:24.210Z,3.97
2022-08-31T03:01:52.858Z,3.10
2022-08-31T03:04:19.743Z,3.53
2022-08-31T03:06:47.815Z,2.80
2022-08-31T03:09:15.904Z,5.15
2022-08-31T03:11:42.944Z,3.60
2022-08-31T03:14:09.796Z,3.30
2022-08-31T03:16:38.282Z,3.65
2022-08-31T03:19:05.060Z,4.10
2022-08-31T03:21:31.839Z,9.27
2022-08-31T03:23:58.648Z,3.60
2022-08-31T03:26:25.393Z,4.00
2022-08-31T03:28:52.180Z,3.47
2022-08-31T03:31:19.006Z,3.00
2022-08-31T03:33:46.055Z,3.85
2022-08-31T03:36:15.736Z,5.10
2022-08-31T03:38:42.747Z,4.57
2022-08-31T03:41:09.652Z,3.67
2022-08-31T03:43:36.633Z,3.45
2022-08-31T03:46:06.141Z,3.25
2022-08-31T03:48:38.736Z,2.83
2022-08-31T03:51:07.043Z,3.67
2022-08-31T03:53:35.243Z,2.67
2022-08-31T03:56:03.849Z,4.35
2022-08-31T03:58:31.389Z,3.38
2022-08-31T04:00:58.168Z,3.33
2022-08-31T04:03:24.930Z,3.60
2022-08-31T04:05:51.717Z,4.10
2022-08-31T04:08:19.464Z,5.38
2022-08-31T04:10:48.538Z,5.80
2022-08-31T04:13:15.314Z,3.13
2022-08-31T04:15:42.250Z,3.05
2022-08-31T04:18:09.046Z,3.80
2022-08-31T04:20:36.536Z,3.85
2022-08-31T04:23:03.718Z,3.00
2022-08-31T04:25:30.531Z,3.22
2022-08-31T04:27:58.200Z,2.75
2022-08-31T04:30:25.475Z,3.72
2022-08-31T04:32:53.433Z,3.20
2022-08-31T04:35:20.283Z,3.22
2022-08-31T04:37:47.574Z,3.95
2022-08-31T04:40:25.650Z,4.70
2022-08-31T04:42:53.114Z,3.78
2022-08-31T04:45:20.177Z,7.25
2022-08-31T04:47:46.980Z,3.10
2022-08-31T04:50:14.678Z,3.67
2022-08-31T04:52:42.436Z,5.22
2022-08-31T04:55:11.373Z,4.32
2022-08-31T04:57:41.757Z,5.10
2022-08-31T05:00:09.573Z,4.88
2022-08-31T05:02:39.343Z,7.78
2022-08-31T05:05:06.665Z,4.47
2022-08-31T05:07:33.432Z,4.40
2022-08-31T05:10:01.428Z,4.13
2022-08-31T05:12:28.274Z,8.05
2022-08-31T05:14:55.057Z,3.95
2022-08-31T05:17:22.444Z,7.18
2022-08-31T05:19:51.921Z,8.00
2022-08-31T05:22:20.049Z,5.38
2022-08-31T05:24:48.807Z,5.63
2022-08-31T05:27:16.420Z,5.15
2022-08-31T05:29:43.183Z,7.30
2022-08-31T05:32:10.247Z,6.70
2022-08-31T05:34:38.874Z,5.28
2022-08-31T05:37:05.742Z,5.28
2022-08-31T05:39:33.446Z,5.78
2022-08-31T05:42:00.534Z,5.03
2022-08-31T05:44:28.861Z,8.68
2022-08-31T05:47:03.811Z,4.60
2022-08-31T05:49:32.231Z,5.90
2022-08-31T05:51:59.860Z,7.35
2022-08-31T05:54:27.495Z,5.88
2022-08-31T05:56:54.870Z,4.80
2022-08-31T05:59:28.358Z,4.78
2022-08-31T06:01:55.679Z,6.90
2022-08-31T06:04:22.498Z,8.10
2022-08-31T06:06:49.933Z,5.30
2022-08-31T06:09:16.723Z,5.40
2022-08-31T06:11:43.790Z,4.15
2022-08-31T06:14:10.951Z,3.55
2022-08-31T06:16:37.879Z,8.75
2022-08-31T06:19:07.183Z,4.72
2022-08-31T06:21:35.959Z,5.03
2022-08-31T06:24:03.343Z,4.72
2022-08-31T06:26:31.412Z,6.82
2022-08-31T06:29:00.399Z,6.13
2022-08-31T06:31:32.507Z,4.43
2022-08-31T06:33:59.621Z,4.85
2022-08-31T06:36:28.225Z,3.70
2022-08-31T06:38:56.068Z,4.53
2022-08-31T06:41:27.148Z,3.95
2022-08-31T06:43:54.331Z,7.75
2022-08-31T06:46:21.731Z,8.18
2022-08-31T06:48:50.706Z,7.57
2022-08-31T06:51:17.542Z,9.68
2022-08-31T06:53:44.408Z,6.30
2022-08-31T06:56:16.640Z,9.15
2022-08-31T06:58:53.879Z,5.13
2022-08-31T07:01:35.994Z,5.88
2022-08-31T07:04:07.971Z,5.55
2022-08-31T07:06:36.622Z,9.65
2022-08-31T07:09:04.575Z,7.95
2022-08-31T07:11:34.256Z,8.98
2022-08-31T07:14:01.322Z,4.72
2022-08-31T07:16:28.353Z,5.75
2022-08-31T07:18:57.667Z,5.55
2022-08-31T07:21:26.871Z,5.70
2022-08-31T07:23:54.282Z,8.30
2022-08-31T07:26:29.267Z,7.50
2022-08-31T07:28:57.877Z,4.88
2022-08-31T07:31:27.316Z,5.75
2022-08-31T07:33:56.106Z,6.53
2022-08-31T07:36:24.152Z,6.18
2022-08-31T07:39:09.932Z,6.90
2022-08-31T07:41:55.336Z,8.20
2022-08-31T07:44:23.222Z,7.07
2022-08-31T07:46:51.051Z,6.60
2022-08-31T07:49:19.867Z,6.07
2022-08-31T07:51:50.534Z,5.75
2022-08-31T07:54:28.421Z,7.72
2022-08-31T07:57:03.307Z,6.60
2022-08-31T07:59:32.952Z,9.13
2022-08-31T08:02:04.093Z,8.43
2022-08-31T08:04:31.043Z,7.32
2022-08-31T08:07:00.382Z,6.95
2022-08-31T08:09:29.418Z,6.75
2022-08-31T08:12:01.296Z,8.48
2022-08-31T08:14:30.206Z,6.05
2022-08-31T08:16:57.201Z,7.00
2022-08-31T08:19:24.272Z,5.90
2022-08-31T08:21:51.095Z,7.70
2022-08-31T08:24:19.758Z,5.38
2022-08-31T08:26:53.439Z,7.05
2022-08-31T08:29:21.186Z,5.13
2022-08-31T08:31:52.155Z,8.63
2022-08-31T08:34:20.454Z,7.28
2022-08-31T08:36:47.555Z,5.43
2022-08-31T08:39:14.345Z,5.18
2022-08-31T08:41:41.940Z,4.95
2022-08-31T08:44:12.837Z,7.80
2022-08-31T08:46:57.468Z,6.82
2022-08-31T08:49:49.851Z,6.15
2022-08-31T08:52:41.626Z,5.45
2022-08-31T08:55:17.181Z,5.50
2022-08-31T08:57:45.998Z,5.05
2022-08-31T09:00:25.013Z,5.80
2022-08-31T09:03:11.319Z,4.47
2022-08-31T09:05:48.539Z,6.18
2022-08-31T09:08:43.505Z,4.38
2022-08-31T09:11:18.733Z,7.90
2022-08-31T09:14:09.808Z,7.13
2022-08-31T09:17:09.944Z,4.63
2022-08-31T09:19:58.229Z,5.70
2022-08-31T09:22:25.044Z,5.63
2022-08-31T09:24:56.186Z,5.13
2022-08-31T09:27:47.027Z,4.85
2022-08-31T09:30:32.106Z,4.35
2022-08-31T09:32:58.942Z,5.13
2022-08-31T09:35:40.630Z,4.70
2022-08-31T09:38:12.482Z,4.70
2022-08-31T09:40:44.695Z,4.85
2022-08-31T09:43:23.838Z,4.90
2022-08-31T09:46:26.158Z,5.47
2022-08-31T09:48:56.173Z,8.60
2022-08-31T09:51:31.151Z,5.95
2022-08-31T09:54:34.156Z,13.07
2022-08-31T09:57:02.574Z,9.50
2022-08-31T09:59:48.597Z,5.65
2022-08-31T10:02:26.684Z,6.90
2022-08-31T10:04:58.447Z,12.02
2022-08-31T10:07:28.809Z,8.07
2022-08-31T10:10:31.780Z,7.45
2022-08-31T10:13:01.874Z,10.07
2022-08-31T10:15:33.542Z,5.80
2022-08-31T10:18:14.247Z,7.15
2022-08-31T10:20:48.600Z,6.78
2022-08-31T10:23:27.105Z,10.18
2022-08-31T10:26:00.037Z,6.32
2022-08-31T10:28:49.737Z,5.70
2022-08-31T10:31:30.099Z,7.45
2022-08-31T10:34:17.770Z,6.97
2022-08-31T10:36:44.697Z,8.90
2022-08-31T10:39:40.088Z,5.80
2022-08-31T10:42:15.855Z,7.50
2022-08-31T10:44:57.419Z,6.78
2022-08-31T10:47:33.110Z,6.88
2022-08-31T10:50:03.191Z,7.45
2022-08-31T10:52:43.009Z,6.68
2022-08-31T10:55:15.137Z,6.10
2022-08-31T10:57:51.052Z,5.80
2022-08-31T11:00:41.264Z,6.57
2022-08-31T11:03:26.043Z,7.20
2022-08-31T11:06:26.235Z,6.20
2022-08-31T11:09:33.574Z,9.60
2022-08-31T11:12:08.884Z,5.82
2022-08-31T11:14:58.504Z,6.55
2022-08-31T11:17:42.981Z,5.90
2022-08-31T11:20:40.874Z,5.93
2022-08-31T11:23:18.692Z,5.70
2022-08-31T11:26:07.107Z,5.20
2022-08-31T11:28:36.004Z,5.75
2022-08-31T11:31:08.477Z,5.85
2022-08-31T11:33:36.111Z,5.60
2022-08-31T11:36:07.626Z,7.03
2022-08-31T11:38:54.563Z,5.55
2022-08-31T11:41:36.761Z,5.47
2022-08-31T11:44:04.652Z,5.30
2022-08-31T11:46:33.997Z,5.00
2022-08-31T11:49:00.907Z,7.20
2022-08-31T11:51:41.177Z,5.82
2022-08-31T11:54:14.228Z,5.00
2022-08-31T11:56:44.223Z,7.47
2022-08-31T11:59:32.552Z,10.25
2022-08-31T12:02:21.488Z,6.15
2022-08-31T12:04:53.234Z,9.02
2022-08-31T12:07:29.899Z,6.57
2022-08-31T12:10:24.051Z,5.18
2022-08-31T12:13:31.180Z,6.45
2022-08-31T12:16:19.577Z,7.47
2022-08-31T12:19:13.111Z,5.75
2022-08-31T12:22:05.101Z,5.82
2022-08-31T12:24:49.000Z,6.65
2022-08-31T12:27:54.182Z,5.68
2022-08-31T12:30:26.544Z,6.20
2022-08-31T12:33:02.360Z,6.03
2022-08-31T12:35:30.788Z,6.47
2022-08-31T12:37:58.462Z,5.00
2022-08-31T12:40:25.825Z,7.65
2022-08-31T12:42:57.221Z,6.50
2022-08-31T12:45:40.749Z,6.55
2022-08-31T12:48:31.963Z,5.40
2022-08-31T12:51:32.300Z,5.50
2022-08-31T12:54:20.729Z,4.75
2022-08-31T12:56:58.771Z,5.18
2022-08-31T12:59:57.492Z,5.60
2022-08-31T13:02:20.584Z,4.90
2022-08-31T13:04:47.719Z,4.72
2022-08-31T13:07:29.842Z,5.28
2022-08-31T13:10:09.314Z,4.65
2022-08-31T13:12:37.072Z,5.75
2022-08-31T13:15:04.750Z,4.90
2022-08-31T13:17:36.471Z,5.15
2022-08-31T13:20:07.168Z,5.03
2022-08-31T13:22:41.163Z,5.13
2022-08-31T13:25:25.633Z,5.32
2022-08-31T13:27:53.122Z,4.57
2022-08-31T13:30:21.530Z,4.88
2022-08-31T13:32:52.644Z,5.18
2022-08-31T13:35:21.317Z,4.47
2022-08-31T13:38:06.000Z,11.27
2022-08-31T13:40:35.605Z,5.18
2022-08-31T13:43:02.768Z,5.00
2022-08-31T13:45:34.709Z,6.22
2022-08-31T13:48:03.001Z,5.57
2022-08-31T13:50:52.039Z,9.82
2022-08-31T13:53:39.639Z,6.82
2022-08-31T13:56:54.482Z,7.55
2022-08-31T13:59:24.309Z,10.07
2022-08-31T14:02:11.652Z,7.60
2022-08-31T14:05:00.020Z,5.80
2022-08-31T14:07:50.682Z,5.95
2022-08-31T14:10:20.565Z,6.28
2022-08-31T14:12:53.331Z,6.22
2022-08-31T14:15:38.446Z,4.78
2022-08-31T14:18:25.809Z,9.07
2022-08-31T14:21:26.922Z,8.52
2022-08-31T14:24:02.067Z,8.95
2022-08-31T14:26:31.559Z,11.73
2022-08-31T14:29:01.629Z,10.13
2022-08-31T14:31:33.963Z,9.00
2022-08-31T14:34:22.655Z,8.27
2022-08-31T14:36:56.633Z,12.27
2022-08-31T14:39:26.753Z,6.35
2022-08-31T14:41:55.797Z,7.45
2022-08-31T14:44:28.158Z,8.18
2022-08-31T14:46:56.260Z,8.55
2022-08-31T14:49:24.190Z,10.50
2022-08-31T14:51:51.394Z,10.38
2022-08-31T14:54:18.584Z,9.27
2022-08-31T14:56:49.072Z,7.80
2022-08-31T14:59:19.186Z,8.20
2022-08-31T15:01:49.382Z,9.18
2022-08-31T15:04:18.755Z,8.85
2022-08-31T15:07:06.553Z,9.45
2022-08-31T15:09:41.064Z,10.95
2022-08-31T15:12:08.448Z,11.95
2022-08-31T15:14:37.105Z,8.43
2022-08-31T15:17:06.769Z,11.23
2022-08-31T15:19:38.616Z,12.30
2022-08-31T15:22:09.508Z,10.48
2022-08-31T15:24:45.136Z,7.80
2022-08-31T15:27:14.709Z,12.45
2022-08-31T15:29:43.234Z,12.15
2022-08-31T15:32:10.429Z,11.43
2022-08-31T15:34:37.713Z,12.55
2022-08-31T15:37:05.708Z,12.10
2022-08-31T15:39:35.669Z,9.40
2022-08-31T15:42:04.989Z,10.07
2022-08-31T15:44:33.520Z,10.70
2022-08-31T15:47:21.716Z,9.43
2022-08-31T15:49:48.484Z,12.63
2022-08-31T15:52:15.457Z,11.45
2022-08-31T15:54:42.324Z,11.23
2022-08-31T15:57:11.285Z,10.60
2022-08-31T15:59:43.006Z,10.80
2022-08-31T16:02:11.310Z,11.25
2022-08-31T16:04:42.044Z,11.73
2022-08-31T16:07:09.418Z,13.90
2022-08-31T16:09:37.352Z,11.73
2022-08-31T16:12:04.313Z,11.13
2022-08-31T16:14:31.599Z,9.77
2022-08-31T16:16:59.734Z,9.95
2022-08-31T16:19:34.959Z,10.02
2022-08-31T16:22:03.132Z,12.02
2022-08-31T16:24:35.106Z,16.52
2022-08-31T16:27:01.999Z,10.15
2022-08-31T16:29:29.679Z,10.90
2022-08-31T16:31:56.557Z,9.30
2022-08-31T16:34:24.106Z,7.88
2022-08-31T16:36:51.653Z,9.88
2022-08-31T16:39:18.857Z,9.75
2022-08-31T16:41:45.916Z,7.32
2022-08-31T16:44:20.518Z,8.32
2022-08-31T16:46:47.493Z,9.48
2022-08-31T16:49:32.800Z,7.43
2022-08-31T16:52:10.996Z,11.45
2022-08-31T16:54:42.689Z,8.15
2022-08-31T16:57:10.507Z,8.75
2022-08-31T16:59:37.323Z,13.55
2022-08-31T17:02:04.204Z,7.47
2022-08-31T17:07:18.365Z,9.25
2022-08-31T17:09:45.510Z,10.65
2022-08-31T17:12:15.300Z,6.95
2022-08-31T17:14:46.590Z,10.38
2022-08-31T17:17:15.392Z,7.68
2022-08-31T17:19:44.116Z,8.38
2022-08-31T17:22:16.945Z,9.43
2022-08-31T17:24:46.668Z,9.10
2022-08-31T17:27:18.450Z,8.70
2022-08-31T17:29:48.197Z,7.75
2022-08-31T17:32:18.965Z,10.60
2022-08-31T17:34:49.495Z,7.95
2022-08-31T17:37:16.537Z,9.35
2022-08-31T17:39:44.118Z,9.55
2022-08-31T17:42:11.217Z,7.90
2022-08-31T17:44:38.082Z,8.43
2022-08-31T17:47:05.504Z,13.48
2022-08-31T17:49:36.526Z,10.57
2022-08-31T17:52:07.889Z,15.90
2022-08-31T17:54:35.816Z,11.85
2022-08-31T17:57:03.237Z,8.95
2022-08-31T17:59:32.177Z,12.32
2022-08-31T18:02:00.843Z,8.45
2022-08-31T18:04:28.369Z,11.82
2022-08-31T18:06:55.213Z,8.70
2022-08-31T18:09:27.050Z,10.07
2022-08-31T18:11:54.112Z,11.88
2022-08-31T18:14:25.549Z,13.20
2022-08-31T18:16:53.297Z,10.88
2022-08-31T18:19:27.675Z,11.77
2022-08-31T18:21:58.557Z,9.15
2022-08-31T18:24:25.478Z,9.65
2022-08-31T18:26:52.463Z,6.90
2022-08-31T18:29:23.903Z,6.75
2022-08-31T18:31:53.864Z,10.88
2022-08-31T18:34:23.006Z,10.25
2022-08-31T18:36:50.996Z,8.90
2022-08-31T18:39:40.773Z,10.13
2022-08-31T18:42:26.960Z,12.88
2022-08-31T18:45:12.257Z,11.35
2022-08-31T18:47:39.220Z,7.82
2022-08-31T18:50:06.362Z,6.88
2022-08-31T18:52:33.379Z,9.38
2022-08-31T18:55:00.399Z,10.45
2022-08-31T18:57:27.765Z,13.10
2022-08-31T18:59:54.639Z,13.55
2022-08-31T19:02:22.901Z,11.00
2022-08-31T19:04:50.949Z,9.65
2022-08-31T19:07:18.046Z,11.85
2022-08-31T19:09:45.070Z,10.00
2022-08-31T19:12:16.255Z,8.40
2022-08-31T19:14:45.094Z,9.02
2022-08-31T19:17:12.085Z,11.18
2022-08-31T19:19:39.629Z,9.65
2022-08-31T19:22:06.401Z,10.70
2022-08-31T19:24:33.321Z,9.10
2022-08-31T19:27:01.032Z,7.88
2022-08-31T19:29:31.231Z,9.43
2022-08-31T19:31:59.408Z,9.05
2022-08-31T19:34:31.391Z,11.18
2022-08-31T19:36:58.626Z,7.32
2022-08-31T19:39:27.796Z,9.00
2022-08-31T19:41:56.316Z,10.40
2022-08-31T19:44:23.313Z,13.13
2022-08-31T19:46:53.277Z,8.73
2022-08-31T19:49:20.604Z,11.75
2022-08-31T19:51:51.771Z,9.13
2022-08-31T19:54:19.606Z,10.27
2022-08-31T19:56:46.532Z,11.55
2022-08-31T19:59:18.373Z,7.30
2022-08-31T20:01:47.627Z,7.68
2022-08-31T20:04:17.043Z,11.70
2022-08-31T20:06:45.352Z,12.13
2022-08-31T20:09:12.335Z,8.23
2022-08-31T20:11:39.238Z,8.07
2022-08-31T20:14:06.488Z,9.10
2022-08-31T20:16:36.158Z,6.43
2022-08-31T20:19:04.068Z,6.85
2022-08-31T20:21:32.775Z,7.53
2022-08-31T20:24:02.882Z,9.32
2022-08-31T20:26:33.141Z,7.55
2022-08-31T20:29:05.541Z,6.65
2022-08-31T20:31:32.850Z,7.65
2022-08-31T20:34:00.492Z,8.57
2022-08-31T20:36:29.106Z,9.02
2022-08-31T20:39:02.163Z,8.43
2022-08-31T20:41:32.285Z,9.35
2022-08-31T20:44:01.272Z,9.70
2022-08-31T20:46:46.466Z,8.70
2022-08-31T20:49:26.941Z,9.00
2022-08-31T20:51:55.023Z,7.05
2022-08-31T20:54:23.161Z,8.73
2022-08-31T20:56:51.154Z,8.05
2022-08-31T20:59:18.864Z,7.25
2022-08-31T21:01:46.031Z,7.50
2022-08-31T21:04:12.826Z,8.93
2022-08-31T21:06:40.203Z,9.20
2022-08-31T21:09:08.195Z,5.72
2022-08-31T21:11:40.588Z,8.88
2022-08-31T21:14:07.816Z,7.47
2022-08-31T21:16:35.809Z,7.15
2022-08-31T21:19:03.599Z,7.72
2022-08-31T21:21:31.031Z,10.65
2022-08-31T21:23:58.240Z,8.13
2022-08-31T21:26:26.701Z,6.47
2022-08-31T21:28:54.526Z,7.10
2022-08-31T21:31:28.640Z,7.25
2022-08-31T21:33:59.356Z,7.45
2022-08-31T21:36:26.734Z,7.78
2022-08-31T21:38:54.747Z,6.97
2022-08-31T21:41:22.771Z,8.25
2022-08-31T21:43:49.750Z,5.78
2022-08-31T21:46:21.454Z,6.07
2022-08-31T21:48:48.663Z,7.95
2022-08-31T21:51:37.055Z,6.43
2022-08-31T21:54:06.217Z,5.75
2022-08-31T21:56:36.873Z,7.22
2022-08-31T21:59:06.836Z,6.40
2022-08-31T22:01:33.945Z,5.82
2022-08-31T22:04:00.932Z,5.97
2022-08-31T22:06:30.991Z,5.63
2022-08-31T22:09:06.886Z,7.65
2022-08-31T22:11:37.398Z,7.05
2022-08-31T22:14:05.159Z,5.55
2022-08-31T22:16:32.607Z,6.07
2022-08-31T22:19:02.140Z,7.43
2022-08-31T22:21:32.025Z,6.82
2022-08-31T22:24:01.008Z,5.50
2022-08-31T22:26:29.448Z,9.30
2022-08-31T22:28:56.249Z,6.28
2022-08-31T22:31:25.241Z,6.63
2022-08-31T22:33:52.238Z,6.00
2022-08-31T22:36:31.517Z,6.88
2022-08-31T22:39:07.339Z,7.50
2022-08-31T22:41:37.536Z,5.97
2022-08-31T22:44:06.366Z,6.63
2022-08-31T22:46:33.353Z,5.57
2022-08-31T22:49:00.197Z,5.90
2022-08-31T22:51:27.454Z,7.05
2022-08-31T22:53:54.211Z,7.97
2022-08-31T22:56:26.270Z,5.78
2022-08-31T22:58:57.492Z,6.57
2022-08-31T23:01:26.710Z,5.32
2022-08-31T23:03:57.512Z,5.55
2022-08-31T23:06:24.958Z,5.20
2022-08-31T23:08:52.987Z,6.03
2022-08-31T23:11:20.320Z,7.38
2022-08-31T23:13:55.493Z,6.45
2022-08-31T23:16:27.605Z,6.95
2022-08-31T23:18:57.655Z,6.55
2022-08-31T23:21:25.296Z,6.25
2022-08-31T23:23:53.092Z,7.47
2022-08-31T23:26:21.108Z,5.95
2022-08-31T23:28:47.879Z,5.65
2022-08-31T23:31:14.820Z,10.63
2022-08-31T23:33:47.148Z,6.50
2022-08-31T23:36:13.951Z,6.65
2022-08-31T23:38:42.662Z,6.97
2022-08-31T23:41:09.893Z,7.63
2022-08-31T23:43:40.784Z,5.63
2022-08-31T23:46:07.606Z,5.57
2022-08-31T23:48:34.395Z,6.25
2022-08-31T23:51:02.338Z,5.72
2022-08-31T23:53:29.120Z,6.88
2022-08-31T23:55:56.470Z,8.25
2022-08-31T23:58:25.051Z,5.97
